Time;durP1;ratioP1;P1;durP2;ratioP2;P2;SDS_P1;SDS_P2;PMS_P1;PMS_P2;Temp;Humidity;BMP_temperature;BMP_pressure;BME280_temperature;BME280_humidity;BME280_pressure;Samples;Min_cycle;Max_cycle;Signal;HPM_P1;HPM_P2
2023/12/29 00:01:31;;;;;;;;;6.00;4.33;;;;;10.34;77.68;101154.94;5015740;28;45747;-77
2023/12/29 00:03:56;;;;;;;;;2.33;2.33;;;;;10.26;78.00;101146.81;5015090;28;45444;-78
2023/12/29 00:06:22;;;;;;;;;4.00;2.33;;;;;10.40;77.54;101170.34;4996284;28;45988;-78
2023/12/29 00:08:47;;;;;;;;;3.67;1.67;;;;;10.29;77.68;101143.88;5014105;28;45321;-78
2023/12/29 00:11:20;;;;;;;;;7.33;3.00;;;;;10.37;77.46;101165.31;4980737;28;45858;-77
2023/12/29 00:13:45;;;;;;;;;4.00;1.00;;;;;10.34;77.27;101147.81;5014058;28;45502;-78
2023/12/29 00:16:10;;;;;;;;;3.67;3.67;;;;;10.30;77.44;101135.78;5014826;28;45997;-77
2023/12/29 00:18:39;;;;;;;;;3.00;3.00;;;;;10.50;77.71;101163.28;5015894;28;45419;-79
2023/12/29 00:21:05;;;;;;;;;3.00;3.00;;;;;10.47;77.86;101152.94;5015510;28;45442;-77
2023/12/29 00:23:30;;;;;;;;;1.67;1.67;;;;;10.18;77.08;101093.44;5016049;28;45466;-79
2023/12/29 00:25:56;;;;;;;;;5.00;2.25;;;;;10.49;77.39;101150.13;5022752;28;45594;-77
2023/12/29 00:28:21;;;;;;;;;2.00;2.00;;;;;10.62;77.67;101167.53;5009914;28;45391;-77
2023/12/29 00:30:46;;;;;;;;;2.67;2.67;;;;;10.64;76.88;101160.28;5011169;28;45408;-78
2023/12/29 00:33:12;;;;;;;;;4.00;1.00;;;;;10.59;76.74;101157.16;5014945;28;45390;-78
2023/12/29 00:35:38;;;;;;;;;4.00;2.67;;;;;10.72;77.00;101169.38;5015291;28;45414;-76
2023/12/29 00:38:04;;;;;;;;;0.00;0.00;;;;;10.57;76.97;101134.34;5017685;28;45556;-76
2023/12/29 00:40:29;;;;;;;;;2.33;2.33;;;;;10.54;76.34;101130.13;5017837;28;45439;-80
2023/12/29 00:42:55;;;;;;;;;3.00;3.00;;;;;10.41;76.43;101092.34;5019829;28;45594;-77
2023/12/29 00:45:21;;;;;;;;;1.00;1.00;;;;;10.76;76.34;101149.53;5011359;28;45446;-78
2023/12/29 00:47:48;;;;;;;;;3.33;3.00;;;;;10.52;76.18;101105.50;5019795;28;45225;-78
2023/12/29 00:50:14;;;;;;;;;5.00;3.67;;;;;10.84;76.34;101155.03;5018858;28;45676;-78
2023/12/29 00:52:39;;;;;;;;;3.67;3.33;;;;;10.68;76.48;101122.78;5019171;28;45429;-78
2023/12/29 00:55:05;;;;;;;;;3.00;2.00;;;;;10.85;76.15;101149.56;5017880;28;46293;-78
2023/12/29 00:57:30;;;;;;;;;4.33;3.00;;;;;10.76;76.43;101125.59;5018125;28;45395;-76
2023/12/29 00:59:56;;;;;;;;;5.00;4.00;;;;;10.88;76.24;101143.13;5000702;28;45534;-77
2023/12/29 01:02:21;;;;;;;;;2.00;2.00;;;;;10.87;76.01;101144.09;5018938;28;45460;-77
2023/12/29 01:04:46;;;;;;;;;3.00;2.67;;;;;10.73;75.90;101129.38;5014002;28;46572;-78
2023/12/29 01:07:12;;;;;;;;;6.00;6.00;;;;;10.75;76.22;101123.91;5013474;28;45679;-77
2023/12/29 01:09:40;;;;;;;;;3.00;2.67;;;;;10.90;76.23;101143.84;5016718;28;45375;-77
2023/12/29 01:12:05;;;;;;;;;3.67;2.00;;;;;10.81;76.03;101123.34;4999796;28;45632;-79
2023/12/29 01:14:30;;;;;;;;;3.67;2.00;;;;;10.90;76.44;101144.66;5016478;28;46066;-76
2023/12/29 01:16:56;;;;;;;;;4.00;1.67;;;;;10.76;76.35;101126.44;5016800;28;45419;-77
2023/12/29 01:19:21;;;;;;;;;2.00;2.00;;;;;10.92;75.78;101125.91;5016584;28;45374;-78
2023/12/29 01:21:47;;;;;;;;;4.33;3.00;;;;;10.88;76.17;101121.84;5017093;28;45549;-78
2023/12/29 01:24:12;;;;;;;;;2.00;2.00;;;;;10.89;76.36;101120.88;5014939;28;45559;-78
2023/12/29 01:26:38;;;;;;;;;2.00;2.00;;;;;10.85;76.28;101109.66;5016583;28;46657;-79
2023/12/29 01:29:05;;;;;;;;;4.67;3.00;;;;;10.76;75.93;101096.34;5017121;28;45552;-78
2023/12/29 01:31:31;;;;;;;;;2.00;1.00;;;;;10.86;75.94;101124.66;5016522;28;45422;-76
2023/12/29 01:33:56;;;;;;;;;4.00;3.00;;;;;10.80;75.71;101095.06;5017326;28;46580;-76
2023/12/29 01:36:21;;;;;;;;;2.00;2.00;;;;;10.72;75.63;101086.94;5017754;28;45340;-77
2023/12/29 01:38:47;;;;;;;;;2.67;2.00;;;;;10.90;75.78;101112.75;4990713;28;45591;-77
2023/12/29 01:41:13;;;;;;;;;4.00;1.00;;;;;11.01;75.42;101117.09;5014277;28;45732;-78
2023/12/29 01:43:58;;;;;;;;;1.67;1.67;;;;;10.98;75.47;101120.88;5018674;28;47043;-77
2023/12/29 01:46:29;;;;;;;;;2.67;1.00;;;;;11.02;76.06;101126.78;5015858;28;45927;-77
2023/12/29 01:48:57;;;;;;;;;2.33;2.00;;;;;10.91;75.86;101109.09;4998112;28;45389;-77
2023/12/29 01:51:25;;;;;;;;;3.00;3.00;;;;;11.08;76.06;101131.53;5016820;28;45371;-76
2023/12/29 01:53:53;;;;;;;;;3.67;3.00;;;;;11.07;75.48;101135.19;5017440;28;46191;-79
2023/12/29 01:56:20;;;;;;;;;1.75;0.75;;;;;11.06;75.24;101133.50;5004217;28;45648;-78
2023/12/29 01:58:48;;;;;;;;;1.67;1.00;;;;;11.13;75.55;101144.44;5022425;28;45386;-78
2023/12/29 02:01:14;;;;;;;;;3.00;1.00;;;;;11.15;75.14;101130.00;5010441;28;45620;-78
2023/12/29 02:03:39;;;;;;;;;6.00;2.67;;;;;11.16;75.64;101134.34;5012196;28;45471;-76
2023/12/29 02:06:06;;;;;;;;;3.67;2.67;;;;;11.19;75.07;101138.56;5015813;28;45329;-77
2023/12/29 02:08:32;;;;;;;;;5.00;2.00;;;;;10.98;75.07;101101.41;5004698;28;45425;-78
2023/12/29 02:10:58;;;;;;;;;1.67;1.00;;;;;10.95;75.53;101096.38;5017058;28;45560;-77
2023/12/29 02:13:23;;;;;;;;;1.33;1.33;;;;;11.15;75.37;101123.84;5007517;28;46258;-76
2023/12/29 02:15:54;;;;;;;;;2.33;1.00;;;;;11.23;74.91;101138.16;5015555;28;45509;-78
2023/12/29 02:18:22;;;;;;;;;1.67;1.67;;;;;11.07;74.66;101099.75;5008859;28;45474;-77
2023/12/29 02:20:47;;;;;;;;;5.00;3.00;;;;;11.21;75.30;101126.81;5016037;28;45305;-78
2023/12/29 02:23:13;;;;;;;;;4.33;3.00;;;;;11.12;74.91;101116.13;5007533;28;45938;-80
2023/12/29 02:25:38;;;;;;;;;2.00;2.00;;;;;11.25;75.23;101127.38;4997872;28;45453;-79
2023/12/29 02:28:24;;;;;;;;;5.67;2.67;;;;;11.31;74.76;101142.78;5011363;28;45361;-78
2023/12/29 02:31:06;;;;;;;;;4.00;2.67;;;;;10.85;75.47;101066.28;5016041;28;45408;-76
2023/12/29 02:33:38;;;;;;;;;3.00;1.67;;;;;11.35;75.40;101135.34;5007651;28;46462;-75
2023/12/29 02:36:05;;;;;;;;;1.67;1.67;;;;;11.37;75.33;101136.03;5014864;28;45447;-78
2023/12/29 02:38:31;;;;;;;;;3.00;1.00;;;;;11.10;75.33;101097.66;5008636;28;45349;-76
2023/12/29 02:40:58;;;;;;;;;1.00;1.00;;;;;11.27;75.11;101120.94;5015313;28;45587;-78
2023/12/29 02:43:23;;;;;;;;;2.33;2.00;;;;;11.10;75.25;101097.66;4988542;28;46796;-78
2023/12/29 02:45:48;;;;;;;;;2.00;1.00;;;;;11.34;75.16;101133.66;5015141;28;45487;-78
2023/12/29 02:48:14;;;;;;;;;6.67;4.00;;;;;11.13;75.35;101097.38;5013960;28;45389;-77
2023/12/29 02:50:39;;;;;;;;;4.33;2.33;;;;;11.40;75.20;101131.28;5015318;28;45392;-78
2023/12/29 02:53:05;;;;;;;;;2.00;2.00;;;;;11.36;74.78;101113.06;5015478;28;45733;-78
2023/12/29 02:55:30;;;;;;;;;2.33;2.00;;;;;11.41;74.99;101118.81;5006969;28;45359;-76
2023/12/29 02:57:56;;;;;;;;;1.33;1.33;;;;;11.43;74.61;101122.19;5014200;28;45379;-76
2023/12/29 03:00:21;;;;;;;;;3.00;1.33;;;;;11.42;74.84;101109.88;5013112;28;45545;-78
2023/12/29 03:02:48;;;;;;;;;2.00;1.25;;;;;11.40;74.74;101106.47;5015436;28;46334;-78
2023/12/29 03:05:14;;;;;;;;;5.67;2.67;;;;;11.32;75.14;101087.72;5014074;28;46045;-79
2023/12/29 03:07:40;;;;;;;;;2.00;2.00;;;;;11.24;75.34;101067.13;5016653;28;45508;-77
2023/12/29 03:10:06;;;;;;;;;2.00;2.00;;;;;11.20;75.42;101071.88;5013003;28;45300;-77
2023/12/29 03:12:32;;;;;;;;;4.00;2.67;;;;;11.27;75.44;101078.34;5001691;28;47594;-77
2023/12/29 03:14:57;;;;;;;;;3.67;3.67;;;;;10.91;75.96;101018.66;5014504;28;45278;-78
2023/12/29 03:17:22;;;;;;;;;2.33;1.00;;;;;11.21;75.67;101078.91;5015515;28;45293;-77
2023/12/29 03:19:48;;;;;;;;;3.00;1.75;;;;;11.07;75.88;101057.19;5016639;28;45252;-79
2023/12/29 03:22:13;;;;;;;;;4.75;2.00;;;;;11.16;75.88;101077.63;5007195;28;47126;-76
2023/12/29 03:24:41;;;;;;;;;1.00;1.00;;;;;11.17;75.82;101081.97;5015247;28;45816;-76
2023/12/29 03:27:07;;;;;;;;;4.25;0.25;;;;;11.16;75.99;101062.50;4998485;28;45439;-77
2023/12/29 03:29:32;;;;;;;;;1.33;1.00;;;;;11.27;75.95;101082.81;5014990;28;45337;-77
2023/12/29 03:31:58;;;;;;;;;2.67;2.67;;;;;11.28;75.24;101074.69;5015590;28;45348;-78
2023/12/29 03:34:23;;;;;;;;;1.25;1.25;;;;;11.18;75.66;101063.19;5014240;28;45598;-77
2023/12/29 03:36:48;;;;;;;;;5.75;2.00;;;;;11.26;75.42;101068.69;5014764;28;45555;-76
2023/12/29 03:39:14;;;;;;;;;5.00;2.75;;;;;11.28;75.57;101071.19;5014925;28;45518;-78
2023/12/29 03:41:39;;;;;;;;;4.75;2.00;;;;;11.31;75.75;101070.06;4987402;28;46617;-77
2023/12/29 03:44:06;;;;;;;;;3.33;2.67;;;;;11.26;75.16;101063.34;5013782;28;45476;-76
2023/12/29 03:46:32;;;;;;;;;5.00;2.00;;;;;11.14;75.35;101040.50;5012353;28;45685;-76
2023/12/29 03:48:58;;;;;;;;;2.00;1.75;;;;;11.27;75.67;101056.22;5013917;28;45385;-76
2023/12/29 03:51:23;;;;;;;;;3.00;1.00;;;;;11.07;75.54;101018.13;5012426;28;45821;-78
2023/12/29 03:53:49;;;;;;;;;1.33;1.00;;;;;11.28;75.46;101060.53;5015710;28;45401;-76
2023/12/29 03:56:18;;;;;;;;;3.33;2.00;;;;;11.28;76.26;101065.88;5013516;28;45550;-77
2023/12/29 03:58:47;;;;;;;;;3.00;2.00;;;;;11.20;76.00;101044.41;5011009;28;45411;-78
2023/12/29 04:01:17;;;;;;;;;1.50;1.00;;;;;11.31;75.35;101062.09;5014048;28;45475;-77
2023/12/29 04:03:43;;;;;;;;;1.00;1.00;;;;;11.32;75.52;101058.44;4995452;28;45560;-75
2023/12/29 04:06:08;;;;;;;;;3.50;2.00;;;;;11.15;75.21;101036.88;5011978;28;45642;-76
2023/12/29 04:08:35;;;;;;;;;5.25;2.25;;;;;11.07;75.10;101020.78;5013693;28;45210;-76
2023/12/29 04:11:00;;;;;;;;;2.00;2.00;;;;;11.09;75.17;101021.47;5012254;28;46205;-78
2023/12/29 04:13:26;;;;;;;;;2.33;2.00;;;;;11.24;74.96;101044.03;5013098;28;45761;-76
2023/12/29 04:15:51;;;;;;;;;2.00;1.00;;;;;11.13;75.21;101027.34;5006265;28;45336;-77
2023/12/29 04:18:18;;;;;;;;;3.00;0.50;;;;;11.30;75.04;101053.25;5014016;28;45625;-77
2023/12/29 04:20:43;;;;;;;;;1.33;1.33;;;;;11.34;74.86;101052.00;5012743;28;45575;-77
2023/12/29 04:23:09;;;;;;;;;3.33;1.00;;;;;11.15;74.86;101020.06;5012222;28;45403;-76
2023/12/29 04:25:34;;;;;;;;;4.25;2.00;;;;;11.21;74.55;101030.13;5014910;28;45400;-77
2023/12/29 04:28:00;;;;;;;;;3.33;2.33;;;;;11.37;74.38;101045.53;4996861;28;45498;-76
2023/12/29 04:30:25;;;;;;;;;4.00;1.67;;;;;11.33;74.70;101038.81;5003750;28;45545;-76
2023/12/29 04:32:50;;;;;;;;;3.00;2.00;;;;;11.39;74.27;101052.41;5013554;28;45702;-76
2023/12/29 04:35:16;;;;;;;;;2.67;1.67;;;;;11.23;74.42;101020.22;5013265;28;45455;-77
2023/12/29 04:37:44;;;;;;;;;6.00;1.00;;;;;11.42;74.74;101043.31;4992489;28;45349;-76
2023/12/29 04:40:10;;;;;;;;;1.25;1.00;;;;;11.28;74.70;101045.41;5011423;28;46594;-77
2023/12/29 04:42:35;;;;;;;;;1.67;1.67;;;;;11.43;74.40;101055.63;4995716;28;45901;-76
2023/12/29 04:45:00;;;;;;;;;3.00;1.00;;;;;11.31;74.54;101036.31;5011670;28;45679;-76
2023/12/29 04:47:26;;;;;;;;;2.00;2.00;;;;;11.17;74.82;101008.28;5014086;28;45329;-77
2023/12/29 04:49:51;;;;;;;;;2.67;2.00;;;;;11.33;74.38;101037.00;5013214;28;46429;-75
2023/12/29 04:52:16;;;;;;;;;2.67;2.67;;;;;11.41;74.41;101037.16;5004836;28;45255;-78
2023/12/29 04:54:42;;;;;;;;;2.25;1.00;;;;;11.02;74.93;100984.94;4995497;28;45562;-75
2023/12/29 04:57:07;;;;;;;;;3.75;3.75;;;;;11.44;75.01;101046.66;5011808;28;45454;-76
2023/12/29 04:59:32;;;;;;;;;3.67;1.00;;;;;11.34;74.72;101032.50;5011882;28;45467;-77
2023/12/29 05:01:58;;;;;;;;;0.50;0.50;;;;;11.29;74.54;101027.63;5004915;28;45278;-76
2023/12/29 05:04:23;;;;;;;;;2.25;1.00;;;;;11.38;74.70;101036.56;4994997;28;45532;-77
2023/12/29 05:06:48;;;;;;;;;1.75;1.00;;;;;11.49;74.84;101041.75;5013637;28;45444;-78
2023/12/29 05:09:14;;;;;;;;;4.25;1.00;;;;;11.47;74.26;101041.06;5012109;28;46162;-76
2023/12/29 05:11:40;;;;;;;;;6.00;2.00;;;;;11.47;74.83;101031.25;5005550;28;45528;-75
2023/12/29 05:14:05;;;;;;;;;1.50;1.50;;;;;11.22;74.30;101003.41;5013360;28;45639;-76
2023/12/29 05:16:31;;;;;;;;;4.67;2.00;;;;;11.48;74.72;101048.91;5012690;28;45608;-78
2023/12/29 05:18:56;;;;;;;;;3.00;1.00;;;;;11.47;74.69;101047.22;4995321;28;47263;-78
2023/12/29 05:21:23;;;;;;;;;3.25;1.50;;;;;11.40;74.36;101029.28;4994116;28;45794;-76
2023/12/29 05:23:48;;;;;;;;;1.00;1.00;;;;;11.45;74.68;101037.69;5015719;28;45562;-78
2023/12/29 05:26:14;;;;;;;;;5.00;2.00;;;;;11.46;74.53;101044.69;5016456;28;45559;-76
2023/12/29 05:28:40;;;;;;;;;2.00;1.33;;;;;11.35;74.94;101036.84;5006685;28;46202;-78
2023/12/29 05:31:05;;;;;;;;;1.33;1.33;;;;;11.46;74.84;101044.69;5015751;28;45325;-78
2023/12/29 05:33:33;;;;;;;;;2.00;2.00;;;;;11.51;74.93;101053.09;5014662;28;45603;-77
2023/12/29 05:36:05;;;;;;;;;3.33;1.67;;;;;11.56;74.73;101049.00;5012075;28;45491;-77
2023/12/29 05:38:31;;;;;;;;;3.33;2.00;;;;;11.50;74.43;101041.59;5020312;28;45282;-78
2023/12/29 05:40:56;;;;;;;;;1.50;1.50;;;;;11.48;74.54;101029.41;5018653;28;45310;-76
2023/12/29 05:43:22;;;;;;;;;1.33;1.33;;;;;11.50;74.48;101040.75;5017137;28;45424;-77
2023/12/29 05:45:47;;;;;;;;;3.00;1.33;;;;;11.56;74.29;101043.69;5014989;28;45290;-77
2023/12/29 05:48:12;;;;;;;;;5.00;1.75;;;;;11.58;74.51;101032.88;5015562;28;45546;-76
2023/12/29 05:50:38;;;;;;;;;4.50;1.25;;;;;11.44;74.37;101033.34;5016247;28;45407;-76
2023/12/29 05:53:05;;;;;;;;;1.50;1.50;;;;;11.49;74.56;101041.75;5016356;28;45411;-77
2023/12/29 05:55:30;;;;;;;;;3.00;0.67;;;;;11.31;74.51;101015.00;5014931;28;45353;-79
2023/12/29 05:57:56;;;;;;;;;2.00;2.00;;;;;11.45;74.37;101037.69;5014701;28;46124;-79
2023/12/29 06:00:21;;;;;;;;;2.25;1.25;;;;;11.58;74.66;101057.69;5014978;28;45807;-78
2023/12/29 06:02:46;;;;;;;;;1.50;0.25;;;;;11.61;74.42;101058.38;4989982;28;45545;-78
2023/12/29 06:05:12;;;;;;;;;1.00;1.00;;;;;11.57;74.33;101063.16;5015343;28;45436;-77
2023/12/29 06:07:38;;;;;;;;;2.00;1.00;;;;;11.40;73.96;101027.44;5015091;28;46128;-77
2023/12/29 06:10:04;;;;;;;;;1.00;1.00;;;;;11.62;73.92;101068.09;5011351;28;45511;-78
2023/12/29 06:12:30;;;;;;;;;4.50;2.00;;;;;11.59;74.04;101062.03;5012572;28;45483;-77
2023/12/29 06:14:55;;;;;;;;;3.25;2.75;;;;;11.36;74.08;101015.41;5012870;28;45687;-77
2023/12/29 06:17:20;;;;;;;;;2.75;1.25;;;;;11.71;74.02;101070.72;5010215;28;45497;-76
2023/12/29 06:19:46;;;;;;;;;2.50;0.50;;;;;11.70;73.35;101068.19;5013236;28;45515;-78
2023/12/29 06:22:11;;;;;;;;;3.00;0.00;;;;;11.63;73.94;101061.78;5015108;28;45844;-77
2023/12/29 06:24:40;;;;;;;;;4.00;1.25;;;;;11.67;74.02;101074.66;5013032;28;45615;-78
2023/12/29 06:27:08;;;;;;;;;2.33;1.33;;;;;11.61;73.89;101072.53;5013814;28;46027;-76
2023/12/29 06:29:33;;;;;;;;;5.67;2.00;;;;;11.55;73.63;101054.47;5013516;28;45469;-78
2023/12/29 06:31:59;;;;;;;;;2.00;2.00;;;;;11.42;73.97;101032.66;5014537;28;45364;-77
2023/12/29 06:34:24;;;;;;;;;1.00;1.00;;;;;11.68;73.92;101068.34;5010856;28;45654;-78
2023/12/29 06:36:50;;;;;;;;;1.33;0.67;;;;;11.61;73.63;101056.56;4994471;28;47174;-77
2023/12/29 06:39:15;;;;;;;;;4.33;4.00;;;;;11.70;73.10;101069.03;5015572;28;45786;-77
2023/12/29 06:41:40;;;;;;;;;4.67;1.33;;;;;11.52;73.31;101028.16;5014363;28;45668;-77
2023/12/29 06:44:06;;;;;;;;;1.25;1.00;;;;;11.72;73.52;101056.41;5015975;28;45565;-77
2023/12/29 06:46:31;;;;;;;;;3.00;2.00;;;;;11.56;73.07;101048.19;5016225;28;45336;-77
2023/12/29 06:48:56;;;;;;;;;3.67;1.00;;;;;11.67;72.49;101063.16;5022060;28;45403;-79
2023/12/29 06:51:23;;;;;;;;;2.00;1.00;;;;;11.70;73.05;101063.72;5018473;28;45408;-77
2023/12/29 06:53:49;;;;;;;;;1.50;1.00;;;;;11.50;72.70;101030.97;5019097;28;45451;-79
2023/12/29 06:56:15;;;;;;;;;1.25;1.25;;;;;11.68;72.82;101057.69;5016680;28;45697;-77
2023/12/29 06:58:41;;;;;;;;;0.75;0.75;;;;;11.58;73.19;101032.88;4998282;28;45447;-78
2023/12/29 07:01:08;;;;;;;;;1.50;1.25;;;;;11.42;73.03;101011.38;5013527;28;45525;-79
2023/12/29 07:03:33;;;;;;;;;1.25;1.00;;;;;11.66;73.32;101056.16;5000184;28;45603;-77
2023/12/29 07:06:02;;;;;;;;;5.00;1.00;;;;;11.57;73.46;101041.88;4988403;28;46219;-76
2023/12/29 07:08:28;;;;;;;;;2.00;0.25;;;;;11.65;73.66;101047.34;5009148;28;45674;-77
2023/12/29 07:10:53;;;;;;;;;2.00;1.00;;;;;11.61;73.22;101047.75;4996968;28;45396;-77
2023/12/29 07:13:22;;;;;;;;;4.00;2.67;;;;;11.57;73.70;101045.38;5015227;28;45441;-78
2023/12/29 07:15:48;;;;;;;;;7.75;2.50;;;;;11.51;73.20;101029.97;5002739;28;48135;-77
2023/12/29 07:18:13;;;;;;;;;3.33;2.33;;;;;11.68;73.75;101047.03;5014963;28;45511;-77
2023/12/29 07:20:39;;;;;;;;;3.25;1.50;;;;;11.50;73.26;101030.13;5017259;28;46010;-78
2023/12/29 07:23:05;;;;;;;;;2.00;0.50;;;;;11.56;73.29;101038.38;5021906;28;45245;-78
2023/12/29 07:25:30;;;;;;;;;0.50;0.50;;;;;11.64;73.24;101050.97;5014159;28;45271;-79
2023/12/29 07:27:55;;;;;;;;;3.00;1.50;;;;;11.43;73.85;101013.03;5010612;28;49565;-78
2023/12/29 07:30:21;;;;;;;;;1.75;1.25;;;;;11.54;73.69;101043.00;5014835;28;45630;-76
2023/12/29 07:32:46;;;;;;;;;3.00;2.00;;;;;11.44;73.70;101034.19;5015186;28;45255;-78
2023/12/29 07:35:15;;;;;;;;;0.00;0.00;;;;;11.14;73.77;100992.63;5013518;28;45884;-79
2023/12/29 07:37:40;;;;;;;;;1.00;1.00;;;;;11.40;74.29;101054.06;4989378;28;45340;-77
2023/12/29 07:40:07;;;;;;;;;0.00;0.00;;;;;11.32;74.65;101035.31;5015708;28;45486;-78
2023/12/29 07:42:33;;;;;;;;;3.00;2.00;;;;;11.12;74.76;101015.88;5015794;28;45451;-79
2023/12/29 07:44:58;;;;;;;;;3.33;2.00;;;;;11.10;75.16;101027.63;5014418;28;46061;-79
2023/12/29 07:47:23;;;;;;;;;2.00;1.00;;;;;11.19;75.64;101035.59;5013677;28;45455;-76
2023/12/29 07:49:49;;;;;;;;;1.00;1.00;;;;;11.13;75.02;101033.50;5014657;28;45358;-78
2023/12/29 07:52:14;;;;;;;;;0.00;0.00;;;;;11.17;75.66;101040.22;5014166;28;45508;-76
2023/12/29 07:54:39;;;;;;;;;2.00;2.00;;;;;11.16;76.26;101043.88;5013935;28;46393;-77
2023/12/29 07:57:05;;;;;;;;;2.25;1.00;;;;;10.98;75.52;101009.13;5015927;28;45532;-76
2023/12/29 07:59:30;;;;;;;;;1.50;0.00;;;;;11.15;75.57;101044.00;5017537;28;45267;-78
2023/12/29 08:01:57;;;;;;;;;1.00;1.00;;;;;10.64;75.75;100962.69;5020587;28;45671;-79
2023/12/29 08:04:23;;;;;;;;;0.67;0.67;;;;;11.10;76.09;101044.44;5020247;28;46913;-77
2023/12/29 08:06:49;;;;;;;;;2.00;1.00;;;;;10.79;76.51;100992.34;5006986;28;45296;-78
2023/12/29 08:09:14;;;;;;;;;1.00;1.00;;;;;11.05;76.66;101036.03;5014983;28;45409;-77
2023/12/29 08:11:41;;;;;;;;;1.00;1.00;;;;;10.99;76.78;101025.94;5018326;28;45395;-78
2023/12/29 08:14:08;;;;;;;;;1.67;1.00;;;;;10.83;76.09;100997.25;5012194;28;46526;-78
2023/12/29 08:16:39;;;;;;;;;1.00;1.00;;;;;10.95;76.10;101013.91;5015653;28;45641;-77
2023/12/29 08:19:04;;;;;;;;;2.00;2.00;;;;;11.06;76.34;101026.25;5008101;28;45381;-77
2023/12/29 08:21:29;;;;;;;;;2.00;1.00;;;;;10.93;76.35;100999.91;5016319;28;45435;-78
2023/12/29 08:23:57;;;;;;;;;3.67;2.00;;;;;11.04;75.81;101021.06;5014615;28;45308;-77
2023/12/29 08:26:22;;;;;;;;;2.00;2.00;;;;;10.73;75.93;100976.94;5013581;28;45348;-77
2023/12/29 08:28:48;;;;;;;;;4.00;0.33;;;;;11.01;76.34;101023.97;5012791;28;45427;-76
2023/12/29 08:31:16;;;;;;;;;1.33;1.33;;;;;11.16;76.54;101027.06;5014649;28;45635;-77
2023/12/29 08:33:41;;;;;;;;;0.67;0.67;;;;;11.16;75.82;101033.22;5013629;28;45301;-77
2023/12/29 08:36:06;;;;;;;;;4.00;1.00;;;;;11.06;76.27;101011.13;5014607;28;45478;-77
2023/12/29 08:38:32;;;;;;;;;1.00;1.00;;;;;10.83;76.49;100978.63;5014347;28;45439;-78
2023/12/29 08:40:58;;;;;;;;;1.33;1.33;;;;;11.25;75.79;101043.03;5012832;28;45448;-78
2023/12/29 08:43:23;;;;;;;;;2.00;1.00;;;;;11.27;75.79;101040.25;4995778;28;45672;-79
2023/12/29 08:45:48;;;;;;;;;3.00;1.33;;;;;11.27;75.81;101041.06;5004407;28;45428;-79
2023/12/29 08:48:15;;;;;;;;;3.67;2.00;;;;;10.98;75.73;100987.00;4985240;28;45343;-78
2023/12/29 08:50:42;;;;;;;;;2.33;0.33;;;;;11.37;75.28;101040.22;5008662;28;45471;-79
2023/12/29 08:53:08;;;;;;;;;2.00;0.00;;;;;10.88;75.54;100962.25;5003763;28;48349;-77
2023/12/29 08:55:33;;;;;;;;;2.00;1.00;;;;;11.33;75.25;101017.53;5006018;28;45452;-77
2023/12/29 08:57:59;;;;;;;;;0.00;0.00;;;;;10.28;74.16;100802.06;4997885;28;45346;-78
2023/12/29 09:00:24;;;;;;;;;2.67;1.00;;;;;12.60;71.51;101040.91;5017062;28;45411;-78
2023/12/29 09:02:50;;;;;;;;;3.00;1.67;;;;;13.12;68.52;100963.72;5010388;28;45359;-78
2023/12/29 09:05:15;;;;;;;;;0.33;0.33;;;;;14.06;65.04;100950.44;5018554;28;45276;-77
2023/12/29 09:07:41;;;;;;;;;1.00;1.00;;;;;14.49;63.54;101027.84;5019834;28;45420;-79
2023/12/29 09:10:08;;;;;;;;;4.33;0.00;;;;;13.91;64.13;100991.13;5020907;28;45340;-78
2023/12/29 09:12:34;;;;;;;;;1.00;1.00;;;;;13.90;64.68;101036.72;5011377;28;46024;-80
2023/12/29 09:15:00;;;;;;;;;7.33;0.67;;;;;13.65;65.64;101055.28;5003293;28;45392;-78
2023/12/29 09:17:25;;;;;;;;;0.50;0.25;;;;;12.52;66.62;100913.66;5023399;28;45278;-77
2023/12/29 09:19:50;;;;;;;;;2.50;0.25;;;;;13.29;67.09;101064.34;5022247;28;45631;-79
2023/12/29 09:22:16;;;;;;;;;1.00;1.00;;;;;12.89;67.34;101019.41;5017474;28;45347;-77
2023/12/29 09:24:42;;;;;;;;;3.00;2.00;;;;;12.76;67.89;101039.28;5018037;28;45442;-80
2023/12/29 09:27:07;;;;;;;;;2.25;1.00;;;;;12.49;68.87;101021.47;5018198;28;45652;-77
2023/12/29 09:29:33;;;;;;;;;2.50;1.00;;;;;12.83;68.58;101068.03;5017204;28;45541;-79
2023/12/29 09:31:58;;;;;;;;;1.75;0.50;;;;;12.63;68.98;101052.16;5017314;28;45595;-78
2023/12/29 09:34:24;;;;;;;;;1.50;1.50;;;;;12.51;69.03;101057.84;5015725;28;45607;-77
2023/12/29 09:36:49;;;;;;;;;1.00;0.75;;;;;12.33;69.68;101023.97;5000027;28;45578;-77
2023/12/29 09:39:14;;;;;;;;;2.50;0.75;;;;;12.64;69.60;101074.34;5019116;28;45512;-78
2023/12/29 09:41:45;;;;;;;;;1.50;1.00;;;;;12.41;69.34;101025.88;5015584;28;45997;-78
2023/12/29 09:44:14;;;;;;;;;1.00;1.00;;;;;12.51;69.40;101045.34;5016436;28;45620;-81
2023/12/29 09:46:42;;;;;;;;;1.25;1.00;;;;;12.44;69.38;101025.59;5016061;28;45518;-77
2023/12/29 09:49:08;;;;;;;;;1.67;1.00;;;;;12.57;69.16;101059.91;5016250;28;45515;-78
2023/12/29 09:51:37;;;;;;;;;2.67;1.67;;;;;12.16;69.50;101011.41;4998535;28;47803;-80
2023/12/29 09:54:03;;;;;;;;;2.00;1.25;;;;;12.54;69.49;101069.03;5016891;28;45297;-79
2023/12/29 09:56:29;;;;;;;;;3.00;1.00;;;;;12.51;69.48;101065.84;5017107;28;45447;-79
2023/12/29 09:58:59;;;;;;;;;3.75;0.00;;;;;12.39;69.17;101039.34;5016645;28;45331;-79
2023/12/29 10:01:29;;;;;;;;;2.00;1.75;;;;;12.43;69.41;101048.75;5016157;28;45416;-78
2023/12/29 10:03:54;;;;;;;;;1.75;1.75;;;;;12.51;69.38;101057.84;5013783;28;45534;-79
2023/12/29 10:06:24;;;;;;;;;3.00;3.00;;;;;12.52;69.11;101064.84;5013227;28;45440;-83
2023/12/29 10:08:50;;;;;;;;;2.00;2.00;;;;;12.62;69.50;101077.16;5015371;28;45404;-78
2023/12/29 10:11:20;;;;;;;;;0.00;0.00;;;;;12.61;69.52;101082.59;4999671;28;47297;-79
2023/12/29 10:13:50;;;;;;;;;0.75;0.50;;;;;12.20;69.59;101018.13;5016972;28;45459;-78
2023/12/29 10:16:35;;;;;;;;;2.00;0.00;;;;;12.66;69.97;101086.53;5017243;28;45450;-79
2023/12/29 10:19:16;;;;;;;;;3.67;0.67;;;;;12.69;69.89;101077.38;4999077;28;45353;-80
2023/12/29 10:21:56;;;;;;;;;2.67;1.00;;;;;12.74;69.56;101081.28;5015918;28;45565;-78
2023/12/29 10:24:24;;;;;;;;;3.00;0.00;;;;;12.78;69.42;101077.31;4999582;28;45792;-78
2023/12/29 10:26:50;;;;;;;;;3.67;3.33;;;;;12.71;69.87;101072.72;5017946;28;45490;-78
2023/12/29 10:29:16;;;;;;;;;0.67;0.67;;;;;12.74;69.66;101075.94;5017674;28;45285;-79
2023/12/29 10:31:41;;;;;;;;;3.00;1.00;;;;;12.89;69.54;101094.94;5015681;28;46460;-79
2023/12/29 10:34:29;;;;;;;;;3.00;1.00;;;;;12.66;69.24;101067.03;5016689;28;45315;-77
2023/12/29 10:36:56;;;;;;;;;0.50;0.25;;;;;12.92;69.09;101104.47;5016045;28;45618;-78
2023/12/29 10:39:23;;;;;;;;;3.00;2.00;;;;;12.85;69.26;101098.06;5018193;28;45384;-80
2023/12/29 10:41:49;;;;;;;;;1.75;1.00;;;;;12.84;69.22;101075.91;5016918;28;46253;-80
2023/12/29 10:44:15;;;;;;;;;1.67;1.67;;;;;12.79;68.93;101048.81;5016223;28;45499;-77
2023/12/29 10:46:42;;;;;;;;;2.00;2.00;;;;;12.98;69.04;101086.03;5018628;28;45816;-78
2023/12/29 10:49:13;;;;;;;;;3.25;1.00;;;;;13.00;68.80;101084.03;5001710;28;45329;-78
2023/12/29 10:51:39;;;;;;;;;1.25;1.00;;;;;12.96;69.06;101068.50;5017981;28;45503;-77
2023/12/29 10:54:06;;;;;;;;;0.25;0.25;;;;;12.67;69.00;101024.19;5016469;28;45574;-78
2023/12/29 10:56:34;;;;;;;;;3.00;0.50;;;;;12.77;68.67;101038.28;5014615;28;45472;-77
2023/12/29 10:59:05;;;;;;;;;1.00;0.50;;;;;13.03;69.05;101070.41;5017088;28;45514;-79
2023/12/29 11:01:32;;;;;;;;;0.00;0.00;;;;;13.08;68.94;101057.44;5013893;28;47411;-76
2023/12/29 11:04:02;;;;;;;;;0.50;0.00;;;;;13.09;68.90;101061.78;5015307;28;45454;-79
2023/12/29 11:06:29;;;;;;;;;0.50;0.50;;;;;13.12;68.79;101068.66;5009366;28;45571;-79
2023/12/29 11:08:56;;;;;;;;;2.00;2.00;;;;;13.10;68.52;101057.28;5009161;28;46791;-78
2023/12/29 11:11:21;;;;;;;;;4.50;0.50;;;;;13.15;68.32;101056.84;5012222;28;45915;-80
2023/12/29 11:13:47;;;;;;;;;1.50;1.50;;;;;13.18;68.36;101051.22;5009857;28;45507;-79
2023/12/29 11:16:23;;;;;;;;;0.67;0.67;;;;;13.12;67.88;101052.63;4999745;28;45338;-78
2023/12/29 11:18:50;;;;;;;;;2.50;1.00;;;;;13.16;68.29;101050.50;4998908;28;45566;-79
2023/12/29 11:21:21;;;;;;;;;1.00;1.00;;;;;13.22;68.16;101049.94;5015654;28;46119;-77